Time;durP1;ratioP1;P1;durP2;ratioP2;P2;SDS_P1;SDS_P2;PMS_P1;PMS_P2;Temp;Humidity;BMP_temperature;BMP_pressure;BME280_temperature;BME280_humidity;BME280_pressure;Samples;Min_cycle;Max_cycle;Signal;HPM_P1;HPM_P2
2023/12/22 00:01:47;;;;;;;0.70;0.70;;;6.60;99.90;;;;;;5038685;28;20649;-82
2023/12/22 00:04:13;;;;;;;0.70;0.70;;;6.60;99.90;;;;;;5039071;28;20183;-82
2023/12/22 00:06:41;;;;;;;0.80;0.80;;;6.60;99.90;;;;;;5038706;28;20375;-83
2023/12/22 00:09:06;;;;;;;0.70;0.70;;;6.60;99.90;;;;;;5039814;28;20197;-81
2023/12/22 00:11:32;;;;;;;0.73;0.73;;;6.60;99.90;;;;;;5025816;28;20173;-83
2023/12/22 00:13:57;;;;;;;0.70;0.70;;;6.60;99.90;;;;;;5023464;28;20651;-82
2023/12/22 00:16:23;;;;;;;0.70;0.70;;;6.60;99.90;;;;;;5032977;28;20199;-83
2023/12/22 00:18:48;;;;;;;0.63;0.63;;;6.70;99.90;;;;;;5048350;28;20243;-81
2023/12/22 00:21:14;;;;;;;0.70;0.70;;;6.60;99.90;;;;;;5052590;28;20205;-81
2023/12/22 00:23:40;;;;;;;0.70;0.70;;;6.70;99.90;;;;;;5052368;28;20191;-80
2023/12/22 00:26:05;;;;;;;0.80;0.80;;;6.70;99.90;;;;;;5051812;28;20207;-80
2023/12/22 00:28:33;;;;;;;0.70;0.70;;;6.80;99.90;;;;;;5045067;28;20180;-80
2023/12/22 00:30:59;;;;;;;0.70;0.70;;;6.90;99.90;;;;;;5032019;28;20176;-83
2023/12/22 00:33:25;;;;;;;0.70;0.70;;;6.90;99.90;;;;;;5022503;28;20208;-83
2023/12/22 00:35:51;;;;;;;0.80;0.80;;;7.00;99.90;;;;;;5021701;28;20215;-82
2023/12/22 00:38:17;;;;;;;0.70;0.70;;;7.10;99.90;;;;;;5026995;28;20176;-80
2023/12/22 00:40:43;;;;;;;0.80;0.80;;;7.30;99.90;;;;;;5035423;28;20268;-81
2023/12/22 00:43:08;;;;;;;0.63;0.63;;;7.40;99.30;;;;;;5035441;28;20165;-81
2023/12/22 00:45:34;;;;;;;0.70;0.70;;;7.40;96.20;;;;;;5021144;28;20270;-83
2023/12/22 00:47:59;;;;;;;0.80;0.80;;;7.40;99.00;;;;;;5020539;28;20177;-82
2023/12/22 00:50:25;;;;;;;0.67;0.67;;;7.30;99.90;;;;;;5020315;28;20662;-81
2023/12/22 00:52:50;;;;;;;0.87;0.87;;;7.40;99.90;;;;;;5021788;28;20204;-83
2023/12/22 00:55:16;;;;;;;0.80;0.80;;;7.30;99.90;;;;;;5021050;28;20172;-83
2023/12/22 00:57:42;;;;;;;0.70;0.70;;;7.20;99.90;;;;;;5021406;28;20240;-83
2023/12/22 01:00:11;;;;;;;0.70;0.70;;;7.10;99.90;;;;;;5021079;28;20243;-82
2023/12/22 01:02:37;;;;;;;0.80;0.80;;;6.90;99.90;;;;;;5022497;28;20585;-82
2023/12/22 01:05:03;;;;;;;0.77;0.77;;;6.80;99.90;;;;;;5023270;28;20267;-82
2023/12/22 01:07:29;;;;;;;0.77;0.77;;;6.80;99.90;;;;;;5023239;28;20551;-82
2023/12/22 01:09:54;;;;;;;0.70;0.70;;;6.80;99.90;;;;;;5024472;28;20260;-82
2023/12/22 01:12:20;;;;;;;0.70;0.70;;;6.90;99.90;;;;;;5037895;28;20192;-80
2023/12/22 01:14:45;;;;;;;0.70;0.70;;;6.90;99.90;;;;;;5049304;28;20195;-81
2023/12/22 01:17:11;;;;;;;0.70;0.70;;;6.90;99.90;;;;;;5044148;28;20192;-80
2023/12/22 01:19:37;;;;;;;0.80;0.80;;;6.80;99.90;;;;;;5042254;28;20179;-81
2023/12/22 01:22:02;;;;;;;0.70;0.70;;;6.90;99.90;;;;;;5043876;28;20175;-82
2023/12/22 01:24:28;;;;;;;0.70;0.70;;;6.90;99.90;;;;;;5043146;28;20556;-85
2023/12/22 01:26:54;;;;;;;0.70;0.70;;;6.80;99.90;;;;;;5042972;28;20203;-83
2023/12/22 01:29:19;;;;;;;0.80;0.80;;;6.80;99.90;;;;;;5042629;28;20191;-82
2023/12/22 01:31:45;;;;;;;0.70;0.70;;;6.80;99.90;;;;;;5042269;28;20203;-84
2023/12/22 01:34:10;;;;;;;0.77;0.77;;;6.80;99.90;;;;;;5043848;28;20183;-83
2023/12/22 01:36:36;;;;;;;0.70;0.70;;;6.80;99.90;;;;;;5040763;28;20283;-84
2023/12/22 01:39:02;;;;;;;0.80;0.80;;;6.90;99.90;;;;;;5042102;28;20199;-82
2023/12/22 01:41:28;;;;;;;0.80;0.80;;;7.20;99.90;;;;;;5042155;28;20175;-84
2023/12/22 01:43:53;;;;;;;0.70;0.70;;;7.10;14.50;;;;;;5042024;28;20182;-80
2023/12/22 01:46:20;;;;;;;0.70;0.70;;;7.00;33.40;;;;;;5031875;28;20246;-82
2023/12/22 01:48:46;;;;;;;0.70;0.70;;;6.90;66.10;;;;;;5024561;28;20344;-82
2023/12/22 01:51:12;;;;;;;0.70;0.70;;;6.90;1.00;;;;;;5041451;28;20186;-82
2023/12/22 01:53:37;;;;;;;0.73;0.73;;;6.90;1.00;;;;;;5041049;28;20266;-82
2023/12/22 01:56:04;;;;;;;0.70;0.70;;;7.00;1.00;;;;;;5041050;28;20222;-82
2023/12/22 01:58:32;;;;;;;0.70;0.70;;;7.10;1.00;;;;;;5040683;28;20286;-82
2023/12/22 02:00:58;;;;;;;0.70;0.70;;;7.00;1.00;;;;;;5040572;28;20184;-82
2023/12/22 02:03:24;;;;;;;0.70;0.70;;;7.00;1.00;;;;;;5027879;28;20668;-84
2023/12/22 02:05:50;;;;;;;0.70;0.70;;;7.00;1.00;;;;;;5018536;28;20201;-82
2023/12/22 02:08:18;;;;;;;0.70;0.70;;;7.00;1.00;;;;;;5020617;28;20284;-82
2023/12/22 02:10:44;;;;;;;0.67;0.67;;;7.00;1.00;;;;;;5020721;28;20657;-82
2023/12/22 02:13:10;;;;;;;0.60;0.60;;;7.00;1.00;;;;;;5018839;28;20568;-80
2023/12/22 02:15:36;;;;;;;0.77;0.77;;;7.00;1.00;;;;;;5020087;28;20674;-80
2023/12/22 02:18:05;;;;;;;0.80;0.80;;;7.00;1.00;;;;;;5021138;28;20184;-82
2023/12/22 02:20:32;;;;;;;0.60;0.60;;;7.00;1.00;;;;;;5019799;28;20180;-81
2023/12/22 02:22:58;;;;;;;0.77;0.77;;;7.00;1.00;;;;;;5037180;28;20264;-81
2023/12/22 02:25:23;;;;;;;0.70;0.70;;;6.90;1.00;;;;;;5039603;28;20184;-82
2023/12/22 02:27:57;;;;;;;0.73;0.73;;;6.90;1.00;;;;;;5040297;28;20172;-81
2023/12/22 02:30:47;;;;;;;0.70;0.70;;;6.90;1.00;;;;;;5021652;28;20168;-81
2023/12/22 02:33:15;;;;;;;0.70;0.70;;;6.90;1.00;;;;;;5019593;28;20224;-82
2023/12/22 02:35:42;;;;;;;0.70;0.70;;;7.00;1.00;;;;;;5018650;28;20616;-82
2023/12/22 02:38:09;;;;;;;0.70;0.70;;;7.00;1.00;;;;;;5019820;28;20191;-84
2023/12/22 02:40:35;;;;;;;0.60;0.60;;;7.00;1.00;;;;;;5019141;28;20184;-82
2023/12/22 02:43:02;;;;;;;0.70;0.70;;;7.90;99.90;;;;;;5019797;28;20176;-81
2023/12/22 02:45:27;;;;;;;0.70;0.70;;;7.00;1.00;;;;;;5019443;28;20184;-80
2023/12/22 02:47:53;;;;;;;0.70;0.70;;;7.00;99.90;;;;;;5020167;28;20181;-82
2023/12/22 02:50:19;;;;;;;0.80;0.80;;;7.10;99.90;;;;;;5020833;28;20673;-80
2023/12/22 02:52:44;;;;;;;0.80;0.80;;;7.00;99.90;;;;;;5023732;28;20664;-80
2023/12/22 02:55:10;;;;;;;0.60;0.60;;;7.10;98.10;;;;;;5039085;28;20183;-84
2023/12/22 02:57:35;;;;;;;0.80;0.80;;;7.10;99.90;;;;;;5037308;28;20207;-81
2023/12/22 03:00:01;;;;;;;0.70;0.70;;;7.10;99.90;;;;;;5039001;28;20272;-83
2023/12/22 03:02:26;;;;;;;0.67;0.67;;;7.10;99.90;;;;;;5035871;28;20562;-81
2023/12/22 03:04:52;;;;;;;0.73;0.73;;;7.10;99.90;;;;;;5018454;28;20176;-83
2023/12/22 03:07:17;;;;;;;0.77;0.77;;;7.20;65.00;;;;;;5019766;28;20580;-84
2023/12/22 03:09:43;;;;;;;0.70;0.70;;;7.20;99.90;;;;;;5018965;28;20283;-82
2023/12/22 03:12:10;;;;;;;0.70;0.70;;;7.20;99.90;;;;;;5017941;28;20205;-83
2023/12/22 03:14:36;;;;;;;0.80;0.80;;;7.30;1.00;;;;;;5018803;28;20238;-81
2023/12/22 03:17:03;;;;;;;0.70;0.70;;;7.30;1.00;;;;;;5018115;28;20208;-84
2023/12/22 03:19:29;;;;;;;0.70;0.70;;;7.40;1.00;;;;;;5019355;28;20742;-84
2023/12/22 03:21:56;;;;;;;0.70;0.70;;;7.40;54.80;;;;;;5019585;28;20196;-82
2023/12/22 03:24:22;;;;;;;0.90;0.90;;;7.40;1.00;;;;;;5019070;28;20173;-83
2023/12/22 03:26:48;;;;;;;0.63;0.63;;;7.60;99.90;;;;;;5018958;28;20212;-84
2023/12/22 03:29:14;;;;;;;0.70;0.70;;;7.20;1.00;;;;;;5018419;28;20177;-84
2023/12/22 03:31:40;;;;;;;0.77;0.77;;;7.50;99.90;;;;;;5019931;28;20172;-83
2023/12/22 03:34:05;;;;;;;0.70;0.70;;;7.50;1.00;;;;;;5017516;28;20630;-85
2023/12/22 03:36:31;;;;;;;0.70;0.70;;;7.40;1.00;;;;;;5018930;28;20192;-83
2023/12/22 03:38:57;;;;;;;0.70;0.70;;;7.50;1.00;;;;;;5037127;28;20533;-79
2023/12/22 03:41:22;;;;;;;0.80;0.80;;;7.50;1.00;;;;;;5039127;28;20175;-84
2023/12/22 03:43:48;;;;;;;0.80;0.80;;;7.50;1.00;;;;;;5026100;28;20180;-83
2023/12/22 03:46:13;;;;;;;0.80;0.80;;;7.50;1.00;;;;;;5019390;28;20208;-85
2023/12/22 03:48:39;;;;;;;0.67;0.67;;;7.40;99.90;;;;;;5030051;28;20637;-84
2023/12/22 03:51:05;;;;;;;0.77;0.77;;;7.40;99.90;;;;;;5044340;28;20564;-83
2023/12/22 03:53:30;;;;;;;0.70;0.70;;;7.50;1.00;;;;;;5047903;28;20183;-82
2023/12/22 03:55:56;;;;;;;0.73;0.73;;;7.50;1.00;;;;;;5047570;28;20195;-84
2023/12/22 03:58:21;;;;;;;0.80;0.80;;;7.40;99.90;;;;;;5042185;28;20172;-83
2023/12/22 04:00:47;;;;;;;0.70;0.70;;;7.50;99.90;;;;;;5040149;28;20183;-84
2023/12/22 04:03:13;;;;;;;0.70;0.70;;;7.40;11.30;;;;;;5040299;28;20179;-83
2023/12/22 04:05:39;;;;;;;0.60;0.60;;;7.40;1.00;;;;;;5039276;28;20399;-84
2023/12/22 04:08:05;;;;;;;0.73;0.73;;;7.30;99.90;;;;;;5040398;28;20267;-82
2023/12/22 04:10:31;;;;;;;0.70;0.70;;;7.20;1.00;;;;;;5039893;28;20191;-83
2023/12/22 04:12:56;;;;;;;0.80;0.80;;;7.10;1.00;;;;;;5039265;28;20171;-83
2023/12/22 04:15:22;;;;;;;0.90;0.90;;;7.10;1.00;;;;;;5043516;28;20230;-81
2023/12/22 04:17:47;;;;;;;0.73;0.73;;;7.00;1.00;;;;;;5042002;28;20172;-81
2023/12/22 04:20:13;;;;;;;0.70;0.70;;;6.90;1.00;;;;;;5057288;28;20243;-81
2023/12/22 04:22:39;;;;;;;0.80;0.80;;;6.90;1.00;;;;;;5054625;28;20180;-82
2023/12/22 04:25:06;;;;;;;0.70;0.70;;;6.90;1.00;;;;;;5040579;28;20184;-86
2023/12/22 04:27:31;;;;;;;0.73;0.73;;;6.80;1.00;;;;;;5039541;28;20242;-83
2023/12/22 04:29:57;;;;;;;0.80;0.80;;;6.70;38.20;;;;;;5033368;28;20583;-84
2023/12/22 04:32:22;;;;;;;0.80;0.80;;;6.70;28.10;;;;;;5020867;28;20180;-83
2023/12/22 04:34:48;;;;;;;0.80;0.80;;;6.70;60.60;;;;;;5028120;28;20168;-82
2023/12/22 04:37:13;;;;;;;0.70;0.70;;;6.60;99.90;;;;;;5037565;28;20216;-82
2023/12/22 04:39:40;;;;;;;0.80;0.80;;;6.60;99.90;;;;;;5037743;28;20156;-81
2023/12/22 04:42:05;;;;;;;0.80;0.80;;;6.60;92.80;;;;;;5042126;28;20235;-81
2023/12/22 04:44:31;;;;;;;0.80;0.80;;;6.70;1.00;;;;;;5042665;28;20156;-81
2023/12/22 04:46:56;;;;;;;0.80;0.80;;;6.70;1.00;;;;;;5041490;28;20219;-81
2023/12/22 04:49:22;;;;;;;0.70;0.70;;;6.70;1.00;;;;;;5040085;28;20188;-84
2023/12/22 04:51:48;;;;;;;0.70;0.70;;;6.80;1.00;;;;;;5022862;28;20180;-84
2023/12/22 04:54:13;;;;;;;0.80;0.80;;;6.90;1.00;;;;;;5022999;28;20287;-83
2023/12/22 04:56:39;;;;;;;0.73;0.73;;;6.90;1.00;;;;;;5021532;28;20196;-83
2023/12/22 04:59:04;;;;;;;0.70;0.70;;;6.90;1.00;;;;;;5023583;28;20180;-81
2023/12/22 05:01:30;;;;;;;0.87;0.87;;;6.80;1.00;;;;;;5023379;28;20279;-81
2023/12/22 05:03:55;;;;;;;0.70;0.70;;;6.90;1.00;;;;;;5022699;28;20246;-81
2023/12/22 05:06:22;;;;;;;0.73;0.73;;;6.90;1.00;;;;;;5022125;28;20212;-82
2023/12/22 05:08:48;;;;;;;0.70;0.70;;;6.80;1.00;;;;;;5020914;28;20179;-81
2023/12/22 05:11:13;;;;;;;0.70;0.70;;;6.90;1.00;;;;;;5022378;28;20173;-82
2023/12/22 05:13:40;;;;;;;0.80;0.80;;;6.90;1.00;;;;;;5022583;28;20176;-82
2023/12/22 05:16:06;;;;;;;0.70;0.70;;;6.90;1.00;;;;;;5022593;28;20498;-81
2023/12/22 05:18:31;;;;;;;0.70;0.70;;;6.90;1.00;;;;;;5022830;28;20195;-82
2023/12/22 05:20:57;;;;;;;0.70;0.70;;;6.90;1.00;;;;;;5022504;28;20214;-81
2023/12/22 05:23:22;;;;;;;0.70;0.70;;;7.00;1.00;;;;;;5021834;28;20241;-82
2023/12/22 05:25:48;;;;;;;0.80;0.80;;;7.00;1.00;;;;;;5021198;28;20235;-81
2023/12/22 05:28:13;;;;;;;0.70;0.70;;;7.10;1.00;;;;;;5022315;28;20187;-83
2023/12/22 05:30:39;;;;;;;0.80;0.80;;;7.10;1.00;;;;;;5022327;28;20822;-82
2023/12/22 05:33:05;;;;;;;0.70;0.70;;;7.10;99.90;;;;;;5021559;28;20184;-81
2023/12/22 05:35:31;;;;;;;0.80;0.80;;;7.10;99.90;;;;;;5021523;28;20172;-81
2023/12/22 05:37:56;;;;;;;0.70;0.70;;;7.20;1.00;;;;;;5029173;28;20545;-81
2023/12/22 05:40:22;;;;;;;0.70;0.70;;;7.20;1.00;;;;;;5033084;28;20259;-82
2023/12/22 05:42:47;;;;;;;0.70;0.70;;;7.20;99.90;;;;;;5034152;28;20607;-82
2023/12/22 05:45:14;;;;;;;0.80;0.80;;;7.10;1.00;;;;;;5034490;28;20176;-81
2023/12/22 05:47:40;;;;;;;0.80;0.80;;;7.00;1.00;;;;;;5033183;28;20275;-83
2023/12/22 05:50:06;;;;;;;0.80;0.80;;;6.90;1.00;;;;;;5030980;28;20184;-81
2023/12/22 05:52:31;;;;;;;0.80;0.80;;;6.90;1.00;;;;;;5028526;28;20249;-82
2023/12/22 05:54:57;;;;;;;0.80;0.80;;;6.90;1.00;;;;;;5027084;28;20626;-81
2023/12/22 05:57:25;;;;;;;0.70;0.70;;;6.90;1.00;;;;;;5018223;28;20527;-81
2023/12/22 05:59:50;;;;;;;0.80;0.80;;;7.10;1.00;;;;;;5019863;28;20188;-82
2023/12/22 06:02:16;;;;;;;0.70;0.70;;;7.20;99.90;;;;;;5017035;28;20568;-83
2023/12/22 06:04:41;;;;;;;0.73;0.73;;;7.20;99.90;;;;;;5018821;28;20177;-83
2023/12/22 06:07:07;;;;;;;0.80;0.80;;;7.20;1.00;;;;;;5017854;28;20509;-82
2023/12/22 06:09:32;;;;;;;0.70;0.70;;;7.30;1.00;;;;;;5018584;28;20187;-81
2023/12/22 06:11:58;;;;;;;0.73;0.73;;;7.40;1.00;;;;;;5021177;28;20177;-81
2023/12/22 06:14:24;;;;;;;0.70;0.70;;;7.40;99.90;;;;;;5019502;28;20267;-82
2023/12/22 06:16:50;;;;;;;0.70;0.70;;;7.50;1.00;;;;;;5019234;28;20193;-81
2023/12/22 06:19:16;;;;;;;0.80;0.80;;;7.40;99.90;;;;;;5018528;28;20181;-82
2023/12/22 06:21:42;;;;;;;0.80;0.80;;;7.40;1.00;;;;;;5017887;28;20203;-82
2023/12/22 06:24:08;;;;;;;0.73;0.73;;;7.50;99.90;;;;;;5017266;28;20192;-82
2023/12/22 06:26:33;;;;;;;0.80;0.80;;;7.40;99.90;;;;;;5015202;28;20212;-82
2023/12/22 06:28:59;;;;;;;0.70;0.70;;;7.40;1.00;;;;;;5018869;28;20251;-82
2023/12/22 06:31:25;;;;;;;0.80;0.80;;;7.50;99.90;;;;;;5021773;28;20601;-81
2023/12/22 06:33:51;;;;;;;0.77;0.77;;;7.40;1.00;;;;;;5019177;28;20189;-82
2023/12/22 06:36:21;;;;;;;0.80;0.80;;;7.50;1.00;;;;;;5019183;28;20200;-81
2023/12/22 06:38:57;;;;;;;0.80;0.80;;;7.50;99.90;;;;;;5016987;28;20299;-82
2023/12/22 06:41:24;;;;;;;0.70;0.70;;;7.50;99.90;;;;;;5019792;28;20588;-82
2023/12/22 06:43:51;;;;;;;0.80;0.80;;;7.50;1.00;;;;;;5029489;28;20176;-85
2023/12/22 06:46:22;;;;;;;0.70;0.70;;;7.40;88.60;;;;;;5037944;28;20226;-81
2023/12/22 06:48:47;;;;;;;0.70;0.70;;;7.50;1.00;;;;;;5039397;28;20172;-82
2023/12/22 06:51:27;;;;;;;0.90;0.90;;;7.50;1.00;;;;;;5043683;28;20187;-80
2023/12/22 06:53:57;;;;;;;0.70;0.70;;;7.50;1.00;;;;;;5048211;28;20241;-83
2023/12/22 06:56:27;;;;;;;0.70;0.70;;;7.50;99.90;;;;;;5049171;28;20227;-82
2023/12/22 06:58:56;;;;;;;0.70;0.70;;;7.50;1.00;;;;;;5059935;28;20202;-81
2023/12/22 07:01:33;;;;;;;0.70;0.70;;;7.50;99.90;;;;;;5060070;28;20214;-82
2023/12/22 07:04:02;;;;;;;0.70;0.70;;;7.50;1.00;;;;;;5059760;28;20171;-82
2023/12/22 07:06:30;;;;;;;0.80;0.80;;;7.50;1.00;;;;;;5058827;28;20293;-81
2023/12/22 07:09:11;;;;;;;0.70;0.70;;;7.60;99.90;;;;;;5058665;28;20213;-83
2023/12/22 07:11:42;;;;;;;0.80;0.80;;;7.50;1.00;;;;;;5057741;28;20720;-82
2023/12/22 07:14:07;;;;;;;0.80;0.80;;;7.50;13.70;;;;;;5067442;28;20174;-80
2023/12/22 07:16:34;;;;;;;0.80;0.80;;;7.40;1.00;;;;;;5068496;28;20195;-80
2023/12/22 07:19:00;;;;;;;0.80;0.80;;;7.30;1.00;;;;;;5069884;28;20171;-82
2023/12/22 07:21:26;;;;;;;0.77;0.77;;;7.30;1.00;;;;;;5071045;28;20171;-80
2023/12/22 07:23:51;;;;;;;0.80;0.80;;;7.20;1.00;;;;;;5068449;28;20198;-81
2023/12/22 07:26:17;;;;;;;0.80;0.80;;;7.20;1.00;;;;;;5069768;28;20229;-80
2023/12/22 07:28:43;;;;;;;0.70;0.70;;;7.20;1.00;;;;;;5070296;28;20191;-81
2023/12/22 07:31:08;;;;;;;0.70;0.70;;;7.20;1.00;;;;;;5070900;28;20158;-83
2023/12/22 07:33:34;;;;;;;0.80;0.80;;;7.20;1.00;;;;;;5070520;28;20182;-81
2023/12/22 07:35:59;;;;;;;0.70;0.70;;;7.20;1.00;;;;;;5068387;28;20195;-83
2023/12/22 07:38:25;;;;;;;0.70;0.70;;;7.20;1.00;;;;;;5044849;28;20176;-81
2023/12/22 07:40:50;;;;;;;0.80;0.80;;;7.20;1.00;;;;;;5027319;28;20647;-80
2023/12/22 07:43:17;;;;;;;0.80;0.80;;;7.40;1.00;;;;;;5035052;28;20172;-80
2023/12/22 07:45:42;;;;;;;0.70;0.70;;;7.50;1.00;;;;;;5036819;28;20392;-83
2023/12/22 07:48:08;;;;;;;0.80;0.80;;;7.50;1.00;;;;;;5035385;28;20176;-81
2023/12/22 07:50:34;;;;;;;0.80;0.80;;;7.40;1.00;;;;;;5042063;28;20195;-82
2023/12/22 07:52:59;;;;;;;0.80;0.80;;;7.50;1.00;;;;;;5037296;28;20180;-84
2023/12/22 07:55:25;;;;;;;0.80;0.80;;;7.40;1.00;;;;;;5035898;28;20183;-84
2023/12/22 07:57:51;;;;;;;0.70;0.70;;;7.20;1.00;;;;;;5036844;28;20171;-84
2023/12/22 08:00:18;;;;;;;0.70;0.70;;;7.00;1.00;;;;;;5035860;28;20178;-84
2023/12/22 08:02:44;;;;;;;0.77;0.77;;;7.10;1.00;;;;;;5034091;28;20269;-85
2023/12/22 08:05:09;;;;;;;0.73;0.73;;;7.10;1.00;;;;;;5033214;28;20225;-86
2023/12/22 08:07:36;;;;;;;0.80;0.80;;;6.90;9.50;;;;;;5032641;28;20208;-82
2023/12/22 08:10:02;;;;;;;0.73;0.73;;;6.90;93.40;;;;;;5033950;28;20180;-83
2023/12/22 08:12:28;;;;;;;0.80;0.80;;;6.70;99.90;;;;;;5034086;28;20176;-82
2023/12/22 08:14:54;;;;;;;0.80;0.80;;;6.70;99.90;;;;;;5034180;28;20290;-82
2023/12/22 08:17:20;;;;;;;0.73;0.73;;;6.70;99.90;;;;;;5035469;28;20208;-84
2023/12/22 08:19:45;;;;;;;0.80;0.80;;;6.70;99.90;;;;;;5036337;28;20176;-84
2023/12/22 08:22:13;;;;;;;0.80;0.80;;;6.70;99.90;;;;;;5036925;28;20203;-85
2023/12/22 08:24:39;;;;;;;0.77;0.77;;;6.80;99.90;;;;;;5034937;28;20191;-84
2023/12/22 08:27:06;;;;;;;0.80;0.80;;;6.80;99.90;;;;;;5035450;28;20204;-84
2023/12/22 08:29:31;;;;;;;0.80;0.80;;;6.70;99.90;;;;;;5037938;28;20187;-84
2023/12/22 08:31:57;;;;;;;0.80;0.80;;;6.70;99.90;;;;;;5038525;28;20409;-83
2023/12/22 08:34:23;;;;;;;0.73;0.73;;;6.60;99.90;;;;;;5036581;28;20481;-84
2023/12/22 08:36:48;;;;;;;0.70;0.70;;;6.60;99.90;;;;;;5036463;28;20430;-81
2023/12/22 08:39:14;;;;;;;0.70;0.70;;;6.60;99.90;;;;;;5036338;28;20176;-82
2023/12/22 08:41:39;;;;;;;0.70;0.70;;;6.90;99.90;;;;;;5035017;28;20183;-83
2023/12/22 08:44:06;;;;;;;0.70;0.70;;;6.90;99.90;;;;;;5036028;28;20542;-82
2023/12/22 08:46:31;;;;;;;0.80;0.80;;;6.90;86.60;;;;;;5033849;28;20219;-83
2023/12/22 08:48:59;;;;;;;0.80;0.80;;;7.00;60.70;;;;;;5038748;28;20175;-83
2023/12/22 08:51:27;;;;;;;0.90;0.90;;;7.00;86.60;;;;;;5031412;28;20645;-81
2023/12/22 08:53:56;;;;;;;0.80;0.80;;;7.10;36.00;;;;;;5028282;28;20172;-83
2023/12/22 08:56:22;;;;;;;0.80;0.80;;;7.10;46.70;;;;;;5026975;28;20203;-82
2023/12/22 08:58:51;;;;;;;0.80;0.80;;;7.10;22.60;;;;;;5041841;28;20195;-80
2023/12/22 09:01:18;;;;;;;0.70;0.70;;;7.60;76.50;;;;;;5048952;28;20241;-81
2023/12/22 09:03:46;;;;;;;0.80;0.80;;;7.40;1.00;;;;;;5051948;28;20176;-81
2023/12/22 09:06:15;;;;;;;0.70;0.70;;;7.20;22.10;;;;;;5048293;28;20235;-84
2023/12/22 09:08:41;;;;;;;0.90;0.90;;;7.20;9.00;;;;;;5042865;28;20186;-80
2023/12/22 09:11:06;;;;;;;0.73;0.73;;;7.20;35.30;;;;;;5046746;28;20176;-82
2023/12/22 09:13:33;;;;;;;0.77;0.77;;;7.10;23.40;;;;;;5046289;28;20183;-82
2023/12/22 09:15:58;;;;;;;0.80;0.80;;;7.10;42.00;;;;;;5030569;28;20278;-82
2023/12/22 09:18:24;;;;;;;0.70;0.70;;;7.10;25.50;;;;;;5026709;28;20184;-82
2023/12/22 09:20:49;;;;;;;0.70;0.70;;;7.10;1.00;;;;;;5019091;28;20176;-81
2023/12/22 09:23:15;;;;;;;0.70;0.70;;;7.20;1.00;;;;;;5016778;28;20172;-83
2023/12/22 09:25:40;;;;;;;0.80;0.80;;;7.20;11.30;;;;;;5019353;28;20200;-81
2023/12/22 09:28:06;;;;;;;0.80;0.80;;;7.20;1.00;;;;;;5020879;28;20183;-81
2023/12/22 09:30:31;;;;;;;0.80;0.80;;;7.30;1.00;;;;;;5023085;28;20522;-81
2023/12/22 09:32:57;;;;;;;0.80;0.80;;;7.30;1.00;;;;;;5021416;28;20577;-82
2023/12/22 09:35:25;;;;;;;0.83;0.83;;;7.30;1.00;;;;;;5028465;28;20680;-81
2023/12/22 09:37:50;;;;;;;0.80;0.80;;;7.40;1.00;;;;;;5038428;28;20255;-82
2023/12/22 09:40:16;;;;;;;0.80;0.80;;;7.40;1.00;;;;;;5026741;28;20195;-81
2023/12/22 09:42:43;;;;;;;0.77;0.77;;;7.40;1.00;;;;;;5027306;28;20537;-82
2023/12/22 09:45:13;;;;;;;0.73;0.73;;;7.50;1.00;;;;;;5028529;28;20188;-82
2023/12/22 09:47:42;;;;;;;0.90;0.90;;;7.50;1.00;;;;;;5033903;28;20743;-82
2023/12/22 09:50:10;;;;;;;0.80;0.80;;;7.60;1.00;;;;;;5024171;28;20545;-82
2023/12/22 09:52:36;;;;;;;0.80;0.80;;;7.60;1.00;;;;;;5019997;28;20247;-83
2023/12/22 09:55:03;;;;;;;0.80;0.80;;;7.60;1.00;;;;;;5034380;28;20176;-82
2023/12/22 09:57:30;;;;;;;0.70;0.70;;;7.60;1.00;;;;;;5029576;28;20200;-81
2023/12/22 09:59:58;;;;;;;0.80;0.80;;;7.60;1.00;;;;;;5032713;28;20176;-82
2023/12/22 10:02:27;;;;;;;0.80;0.80;;;7.60;1.00;;;;;;5025921;28;20658;-83
2023/12/22 10:04:53;;;;;;;0.80;0.80;;;7.60;1.00;;;;;;5026074;28;20176;-84
2023/12/22 10:07:20;;;;;;;0.80;0.80;;;7.60;1.00;;;;;;5030355;28;20234;-83
2023/12/22 10:09:47;;;;;;;0.70;0.70;;;7.60;1.00;;;;;;5030094;28;20175;-82
2023/12/22 10:12:14;;;;;;;0.70;0.70;;;7.70;99.90;;;;;;5025270;28;20199;-82
2023/12/22 10:14:41;;;;;;;0.80;0.80;;;7.70;1.00;;;;;;5027930;28;20251;-82
2023/12/22 10:17:06;;;;;;;0.70;0.70;;;7.60;1.00;;;;;;5024943;28;20281;-82
2023/12/22 10:19:32;;;;;;;0.80;0.80;;;7.70;99.90;;;;;;5027104;28;20595;-81
2023/12/22 10:21:57;;;;;;;0.70;0.70;;;7.70;99.90;;;;;;5026948;28;20169;-81
2023/12/22 10:24:56;;;;;;;0.70;0.70;;;7.70;99.90;;;;;;5028444;28;20182;-83
2023/12/22 10:27:24;;;;;;;0.77;0.77;;;7.70;99.90;;;;;;4990016;28;20223;-82
2023/12/22 10:29:53;;;;;;;0.80;0.80;;;7.80;43.00;;;;;;5030910;28;20172;-81
2023/12/22 10:32:21;;;;;;;0.80;0.80;;;7.90;51.40;;;;;;5021107;28;20208;-81
2023/12/22 10:34:46;;;;;;;0.70;0.70;;;7.90;1.00;;;;;;5017861;28;20662;-81
2023/12/22 10:37:12;;;;;;;0.80;0.80;;;7.90;1.00;;;;;;5016083;28;20250;-82
2023/12/22 10:39:38;;;;;;;0.80;0.80;;;7.90;1.00;;;;;;5014475;28;20693;-83
2023/12/22 10:42:04;;;;;;;0.70;0.70;;;7.90;1.00;;;;;;5012451;28;20191;-81
2023/12/22 10:44:30;;;;;;;0.80;0.80;;;7.90;1.00;;;;;;5012785;28;20176;-81
2023/12/22 10:46:58;;;;;;;0.73;0.73;;;8.00;99.90;;;;;;5016958;28;20220;-78
2023/12/22 10:49:25;;;;;;;0.80;0.80;;;8.00;1.00;;;;;;5014857;28;20226;-80
2023/12/22 10:51:51;;;;;;;0.80;0.80;;;7.90;99.90;;;;;;5019497;28;20172;-80
2023/12/22 10:54:19;;;;;;;0.90;0.90;;;7.90;99.90;;;;;;5027864;28;20179;-80
2023/12/22 10:56:45;;;;;;;0.80;0.80;;;7.90;1.00;;;;;;5034420;28;20211;-80
2023/12/22 10:59:10;;;;;;;0.80;0.80;;;8.00;1.00;;;;;;5032422;28;20191;-80
2023/12/22 11:01:38;;;;;;;0.87;0.87;;;7.90;99.90;;;;;;5025047;28;20222;-80
2023/12/22 11:04:07;;;;;;;0.90;0.90;;;7.90;1.00;;;;;;5032799;28;20298;-81
2023/12/22 11:06:37;;;;;;;0.90;0.90;;;8.00;99.90;;;;;;5033431;28;20222;-82
2023/12/22 11:09:10;;;;;;;0.77;0.77;;;8.00;1.00;;;;;;5032819;28;20191;-81
2023/12/22 11:11:39;;;;;;;0.77;0.77;;;8.00;1.00;;;;;;5037479;28;20172;-79
2023/12/22 11:14:06;;;;;;;0.80;0.80;;;7.90;1.00;;;;;;5048850;28;20661;-81
2023/12/22 11:16:33;;;;;;;0.80;0.80;;;8.00;1.00;;;;;;5035694;28;20685;-81
2023/12/22 11:19:03;;;;;;;0.73;0.73;;;8.00;1.00;;;;;;5035602;28;20176;-80
2023/12/22 11:21:30;;;;;;;0.70;0.70;;;7.90;1.00;;;;;;5037026;28;20176;-83
2023/12/22 11:23:57;;;;;;;0.77;0.77;;;7.80;1.00;;;;;;5035159;28;20259;-82
2023/12/22 11:26:24;;;;;;;0.80;0.80;;;7.70;1.00;;;;;;5034144;28;20211;-80
2023/12/22 11:28:51;;;;;;;0.70;0.70;;;7.60;1.00;;;;;;5036864;28;20190;-83
2023/12/22 11:31:17;;;;;;;0.80;0.80;;;7.50;1.00;;;;;;5033465;28;20180;-79
2023/12/22 11:33:45;;;;;;;0.70;0.70;;;7.50;1.00;;;;;;5033542;28;20183;-82
2023/12/22 11:36:12;;;;;;;0.80;0.80;;;7.30;1.00;;;;;;5026204;28;20192;-81
2023/12/22 11:38:43;;;;;;;0.70;0.70;;;7.40;68.80;;;;;;5034598;28;20184;-82
2023/12/22 11:41:15;;;;;;;0.70;0.70;;;7.30;94.40;;;;;;5037544;28;20156;-81
2023/12/22 11:43:42;;;;;;;0.63;0.63;;;7.20;99.90;;;;;;5035633;28;20413;-81
2023/12/22 11:46:08;;;;;;;0.70;0.70;;;7.20;99.90;;;;;;5035739;28;20729;-83
2023/12/22 11:48:34;;;;;;;0.73;0.73;;;7.10;99.90;;;;;;5036157;28;20257;-83
2023/12/22 11:51:00;;;;;;;0.80;0.80;;;7.20;99.90;;;;;;5037441;28;20176;-82
2023/12/22 11:53:32;;;;;;;0.70;0.70;;;7.00;99.90;;;;;;5029937;28;20241;-83
2023/12/22 11:56:02;;;;;;;0.77;0.77;;;7.00;99.90;;;;;;5024805;28;20184;-83
2023/12/22 11:58:37;;;;;;;0.70;0.70;;;7.00;99.90;;;;;;5027915;28;20232;-81
2023/12/22 12:01:05;;;;;;;0.77;0.77;;;6.90;99.90;;;;;;5025994;28;20214;-83
2023/12/22 12:03:31;;;;;;;0.70;0.70;;;7.00;99.90;;;;;;5023823;28;20684;-83
2023/12/22 12:06:21;;;;;;;0.80;0.80;;;6.90;99.90;;;;;;5023034;28;20219;-82
2023/12/22 12:08:48;;;;;;;0.70;0.70;;;6.90;99.90;;;;;;5026424;28;20238;-82
2023/12/22 12:11:14;;;;;;;0.80;0.80;;;6.90;99.90;;;;;;5035614;28;20171;-82
2023/12/22 12:13:45;;;;;;;0.70;0.70;;;6.90;99.90;;;;;;5027729;28;20531;-83
2023/12/22 12:16:11;;;;;;;0.80;0.80;;;7.00;99.90;;;;;;5028235;28;20199;-83
2023/12/22 12:18:37;;;;;;;0.80;0.80;;;7.00;99.90;;;;;;5028829;28;20716;-81
2023/12/22 12:21:03;;;;;;;0.80;0.80;;;7.00;99.90;;;;;;5030994;28;20176;-84
2023/12/22 12:23:29;;;;;;;0.70;0.70;;;7.00;99.90;;;;;;5037669;28;20270;-85
2023/12/22 12:25:55;;;;;;;0.90;0.90;;;7.10;99.90;;;;;;5037892;28;20279;-82
2023/12/22 12:28:33;;;;;;;0.70;0.70;;;7.10;99.90;;;;;;5038219;28;20195;-84
2023/12/22 12:31:00;;;;;;;0.70;0.70;;;7.10;99.90;;;;;;5037173;28;20241;-82
2023/12/22 12:33:26;;;;;;;0.70;0.70;;;7.10;99.90;;;;;;5038515;28;20184;-84
2023/12/22 12:35:57;;;;;;;0.80;0.80;;;7.10;99.90;;;;;;5040004;28;20254;-85
2023/12/22 12:38:39;;;;;;;0.70;0.70;;;7.10;99.90;;;;;;5039361;28;20217;-84
2023/12/22 12:41:05;;;;;;;0.80;0.80;;;7.10;99.90;;;;;;5042817;28;20163;-82
2023/12/22 12:43:32;;;;;;;0.70;0.70;;;7.10;99.90;;;;;;5039078;28;20559;-82
2023/12/22 12:46:05;;;;;;;0.80;0.80;;;7.20;99.90;;;;;;5038371;28;20183;-82
2023/12/22 12:48:31;;;;;;;0.80;0.80;;;7.20;99.90;;;;;;5042254;28;20187;-81
2023/12/22 12:51:04;;;;;;;0.70;0.70;;;7.10;99.90;;;;;;5039986;28;20180;-81
2023/12/22 12:53:33;;;;;;;0.80;0.80;;;7.10;99.90;;;;;;5045123;28;20198;-83
2023/12/22 12:56:00;;;;;;;0.70;0.70;;;7.10;99.90;;;;;;5044359;28;20204;-84
2023/12/22 12:58:30;;;;;;;0.80;0.80;;;7.10;99.90;;;;;;5041122;28;20179;-84
2023/12/22 13:01:22;;;;;;;0.80;0.80;;;7.20;99.90;;;;;;5035108;28;20188;-83